Terminal Aerodrome Forecast
Issued by NWS

Home | Current Version | Previous Version | Text Only | Print | Product List | Glossary Off
Versions: 1 2 3 4 5 6 7 8 9 10 11 12 13 14 15 16 17 18

000
FTUS43 KABR 291043 AAB
TAFMBG
TAF AMD
KMBG 291043Z 2911/3006 36016G25KT P6SM OVC015
     FM291600 36015G23KT P6SM BKN250
     FM300000 VRB05KT P6SM SKC=

USA.gov is the U.S. government's official web portal to all federal, state and local government web resources and services.